createdAt,value
2022-12-25T00:00:06.630Z,2.65
2022-12-25T00:01:10.628Z,1.93
2022-12-25T00:02:12.502Z,1.52
2022-12-25T00:03:14.419Z,2.94
2022-12-25T00:04:16.374Z,2.55
2022-12-25T00:05:18.156Z,1.42
2022-12-25T00:06:20.080Z,1.84
2022-12-25T00:07:21.820Z,0.40
2022-12-25T00:08:23.545Z,1.34
2022-12-25T00:09:26.152Z,2.38
2022-12-25T00:10:27.937Z,2.43
2022-12-25T00:11:29.716Z,2.46
2022-12-25T00:12:31.449Z,1.38
2022-12-25T00:13:34.217Z,0.51
2022-12-25T00:14:36.016Z,2.10
2022-12-25T00:15:40.664Z,2.76
2022-12-25T00:16:42.655Z,1.61
2022-12-25T00:17:44.572Z,2.31
2022-12-25T00:18:47.226Z,3.07
2022-12-25T00:19:49.007Z,2.70
2022-12-25T00:21:02.497Z,3.03
2022-12-25T00:22:04.280Z,0.21
2022-12-25T00:23:07.954Z,2.76
2022-12-25T00:24:09.995Z,2.59
2022-12-25T00:25:12.056Z,2.10
2022-12-25T00:26:18.469Z,2.03
2022-12-25T00:27:20.308Z,1.97
2022-12-25T00:28:23.728Z,2.10
2022-12-25T00:29:25.803Z,1.37
2022-12-25T00:30:27.593Z,2.31
2022-12-25T00:31:29.442Z,2.09
2022-12-25T00:32:31.407Z,0.78
2022-12-25T00:33:36.106Z,2.70
2022-12-25T00:34:38.217Z,1.57
2022-12-25T00:35:40.743Z,1.58
2022-12-25T00:36:42.981Z,1.61
2022-12-25T00:37:45.412Z,1.41
2022-12-25T00:38:47.854Z,-0.29
2022-12-25T00:39:49.699Z,2.69
2022-12-25T00:40:51.558Z,1.46
2022-12-25T00:41:53.578Z,2.76
2022-12-25T00:42:55.568Z,2.61
2022-12-25T00:43:57.439Z,0.77
2022-12-25T00:44:59.634Z,1.31
2022-12-25T00:46:04.280Z,2.75
2022-12-25T00:47:06.357Z,0.81
2022-12-25T00:48:08.264Z,2.19
2022-12-25T00:49:11.818Z,2.83
2022-12-25T00:50:14.005Z,1.76
2022-12-25T00:51:15.725Z,1.81
2022-12-25T00:52:23.684Z,1.32
2022-12-25T00:53:27.407Z,1.32
2022-12-25T00:54:29.345Z,1.92
2022-12-25T00:55:31.711Z,2.91
2022-12-25T00:56:33.743Z,1.80
2022-12-25T00:57:35.817Z,2.80
2022-12-25T00:58:37.651Z,2.30
2022-12-25T00:59:39.496Z,2.91
2022-12-25T01:00:41.301Z,1.88
2022-12-25T01:01:43.754Z,2.86
2022-12-25T01:02:45.862Z,2.83
2022-12-25T01:03:47.691Z,2.45
2022-12-25T01:04:58.550Z,2.11
2022-12-25T01:06:03.179Z,1.61
2022-12-25T01:07:04.929Z,2.59
2022-12-25T01:08:06.782Z,2.67
2022-12-25T01:09:08.612Z,2.46
2022-12-25T01:10:11.021Z,2.98
2022-12-25T01:11:12.951Z,2.69
2022-12-25T01:12:14.773Z,2.90
2022-12-25T01:13:16.619Z,2.81
2022-12-25T01:14:18.413Z,2.24
2022-12-25T01:15:20.842Z,2.49
2022-12-25T01:16:22.807Z,2.33
2022-12-25T01:17:24.791Z,1.52
2022-12-25T01:18:26.532Z,1.84
2022-12-25T01:19:28.239Z,2.66
2022-12-25T01:20:29.972Z,2.45
2022-12-25T01:21:32.075Z,1.64
2022-12-25T01:22:33.770Z,2.66
2022-12-25T01:23:36.192Z,2.00
2022-12-25T01:24:37.840Z,2.80
2022-12-25T01:25:39.638Z,2.52
2022-12-25T01:26:41.414Z,2.52
2022-12-25T01:27:43.145Z,2.07
2022-12-25T01:28:45.349Z,2.19
2022-12-25T01:29:47.225Z,1.64
2022-12-25T01:30:49.686Z,2.41
2022-12-25T01:31:51.500Z,1.72
2022-12-25T01:32:53.282Z,2.13
2022-12-25T01:33:55.020Z,2.34
2022-12-25T01:34:56.791Z,0.32
2022-12-25T01:35:58.577Z,1.90
2022-12-25T01:37:00.339Z,2.54
2022-12-25T01:38:02.055Z,1.36
2022-12-25T01:39:04.550Z,1.15
2022-12-25T01:40:07.260Z,2.13
2022-12-25T01:41:09.750Z,2.61
2022-12-25T01:42:20.201Z,2.02
2022-12-25T01:43:26.640Z,2.50
2022-12-25T01:44:37.124Z,2.54
2022-12-25T01:45:43.871Z,2.50
2022-12-25T01:46:46.100Z,0.60
2022-12-25T01:47:48.022Z,0.21
2022-12-25T01:48:50.411Z,1.63
2022-12-25T01:49:52.215Z,1.70
2022-12-25T01:50:58.191Z,2.74
2022-12-25T01:52:06.825Z,2.29
2022-12-25T01:53:08.941Z,2.73
2022-12-25T01:54:18.427Z,1.08
2022-12-25T01:55:20.351Z,1.14
2022-12-25T01:56:22.291Z,2.34
2022-12-25T01:57:28.988Z,2.76
2022-12-25T01:58:31.138Z,0.06
2022-12-25T01:59:33.285Z,2.17
2022-12-25T02:02:41.601Z,2.84
2022-12-25T02:03:43.579Z,2.84
2022-12-25T02:04:56.126Z,2.66
2022-12-25T02:05:59.122Z,2.92
2022-12-25T02:07:00.954Z,2.84
2022-12-25T02:08:08.567Z,2.99
2022-12-25T02:09:10.448Z,2.52
2022-12-25T02:10:13.095Z,2.84
2022-12-25T02:11:14.920Z,2.84
2022-12-25T02:12:37.595Z,2.77
2022-12-25T02:13:39.424Z,3.00
2022-12-25T02:14:41.341Z,2.77
2022-12-25T02:16:16.342Z,2.99
2022-12-25T02:17:36.193Z,2.95
2022-12-25T02:18:57.090Z,2.54
2022-12-25T02:20:11.024Z,2.74
2022-12-25T02:21:43.300Z,2.77
2022-12-25T02:23:04.382Z,2.69
2022-12-25T02:24:21.400Z,2.68
2022-12-25T02:25:41.541Z,2.88
2022-12-25T02:27:00.026Z,2.96
2022-12-25T02:28:10.933Z,2.99
2022-12-25T02:29:23.019Z,2.46
2022-12-25T02:30:25.245Z,3.00
2022-12-25T02:31:43.042Z,2.99
2022-12-25T02:32:47.213Z,3.01
2022-12-25T02:34:13.595Z,2.93
2022-12-25T02:35:19.760Z,3.01
2022-12-25T02:36:25.083Z,2.95
2022-12-25T02:37:30.016Z,2.99
2022-12-25T02:38:38.220Z,2.64
2022-12-25T02:39:52.338Z,2.18
2022-12-25T02:41:01.567Z,2.09
2022-12-25T02:42:07.569Z,2.97
2022-12-25T02:43:16.133Z,2.90
2022-12-25T02:44:23.060Z,2.72
2022-12-25T02:45:52.833Z,2.49
2022-12-25T02:46:55.679Z,2.55
2022-12-25T02:47:57.887Z,2.71
2022-12-25T02:49:03.785Z,2.59
2022-12-25T02:50:08.083Z,2.02
2022-12-25T02:51:12.932Z,0.70
2022-12-25T02:52:22.349Z,2.71
2022-12-25T02:53:24.385Z,2.86
2022-12-25T02:54:32.507Z,2.90
2022-12-25T02:55:39.304Z,2.84
2022-12-25T02:56:44.352Z,2.79
2022-12-25T02:57:50.754Z,2.95
2022-12-25T02:58:52.786Z,2.83
2022-12-25T02:59:57.225Z,2.85
2022-12-25T03:01:30.353Z,2.52
2022-12-25T03:02:34.102Z,2.25
2022-12-25T03:03:40.543Z,2.39
2022-12-25T03:04:44.656Z,3.00
2022-12-25T03:05:49.115Z,2.91
2022-12-25T03:07:06.618Z,2.97
2022-12-25T03:08:13.684Z,2.35
2022-12-25T03:09:28.892Z,2.33
2022-12-25T03:10:33.092Z,1.45
2022-12-25T03:11:35.120Z,2.85
2022-12-25T03:12:42.952Z,2.89
2022-12-25T03:13:49.940Z,2.55
2022-12-25T03:14:51.740Z,2.67
2022-12-25T03:15:53.833Z,2.80
2022-12-25T03:16:58.986Z,2.20
2022-12-25T03:18:04.567Z,0.98
2022-12-25T03:19:06.603Z,-0.57
2022-12-25T03:20:09.179Z,1.99
2022-12-25T03:21:11.131Z,2.62
2022-12-25T03:22:19.388Z,1.19
2022-12-25T03:23:24.754Z,2.44
2022-12-25T03:24:26.588Z,2.15
2022-12-25T03:25:28.805Z,2.38
2022-12-25T03:26:30.695Z,1.78
2022-12-25T03:27:35.039Z,2.11
2022-12-25T03:28:36.921Z,2.34
2022-12-25T03:29:38.647Z,2.18
2022-12-25T03:30:53.976Z,1.40
2022-12-25T03:32:07.083Z,2.52
2022-12-25T03:33:44.376Z,2.31
2022-12-25T03:35:11.663Z,1.31
2022-12-25T03:36:20.585Z,2.34
2022-12-25T03:37:34.091Z,2.30
2022-12-25T03:38:55.189Z,2.02
2022-12-25T03:40:06.640Z,2.25
2022-12-25T03:41:17.916Z,2.10
2022-12-25T03:42:27.666Z,2.14
2022-12-25T03:43:49.378Z,2.03
2022-12-25T03:45:13.093Z,2.24
2022-12-25T03:46:17.684Z,0.17
2022-12-25T03:47:26.062Z,2.09
2022-12-25T03:48:31.406Z,2.31
2022-12-25T03:49:50.090Z,1.90
2022-12-25T03:50:56.573Z,2.53
2022-12-25T03:52:00.933Z,1.31
2022-12-25T03:53:22.608Z,2.17
2022-12-25T03:54:29.041Z,2.09
2022-12-25T03:55:31.684Z,2.71
2022-12-25T03:56:35.693Z,2.78
2022-12-25T03:57:37.442Z,2.71
2022-12-25T03:58:51.184Z,2.49
2022-12-25T03:59:53.022Z,2.40
2022-12-25T04:00:54.809Z,2.31
2022-12-25T04:01:56.778Z,2.55
2022-12-25T04:02:58.610Z,2.64
2022-12-25T04:04:00.615Z,1.93
2022-12-25T04:05:02.452Z,2.10
2022-12-25T04:06:04.361Z,2.49
2022-12-25T04:07:06.071Z,2.59
2022-12-25T04:08:07.745Z,2.79
2022-12-25T04:09:09.486Z,2.20
2022-12-25T04:10:11.535Z,2.85
2022-12-25T04:11:13.266Z,2.71
2022-12-25T04:12:15.092Z,2.70
2022-12-25T04:13:16.803Z,2.82
2022-12-25T04:14:18.555Z,1.73
2022-12-25T04:15:20.368Z,2.57
2022-12-25T04:16:22.173Z,2.63
2022-12-25T04:17:24.036Z,2.60
2022-12-25T04:18:25.697Z,2.17
2022-12-25T04:19:27.430Z,2.42
2022-12-25T04:20:29.307Z,1.42
2022-12-25T04:21:31.046Z,1.87
2022-12-25T04:22:32.839Z,2.03
2022-12-25T04:23:34.659Z,1.97
2022-12-25T04:24:36.464Z,2.24
2022-12-25T04:25:38.186Z,2.28
2022-12-25T04:26:40.006Z,2.35
2022-12-25T04:27:41.725Z,2.53
2022-12-25T04:28:43.514Z,2.06
2022-12-25T04:29:45.327Z,2.57
2022-12-25T04:30:47.673Z,2.60
2022-12-25T04:31:49.715Z,2.48
2022-12-25T04:32:56.525Z,2.42
2022-12-25T04:33:58.217Z,2.48
2022-12-25T04:34:59.913Z,2.76
2022-12-25T04:36:01.620Z,2.71
2022-12-25T04:37:03.393Z,1.97
2022-12-25T04:38:05.116Z,2.58
2022-12-25T04:39:07.204Z,1.69
2022-12-25T04:40:09.545Z,2.48
2022-12-25T04:41:13.457Z,2.65
2022-12-25T04:42:16.372Z,2.60
2022-12-25T04:43:18.109Z,2.61
2022-12-25T04:44:20.062Z,2.10
2022-12-25T04:45:21.722Z,2.59
2022-12-25T04:46:23.567Z,2.50
2022-12-25T04:47:25.381Z,2.62
2022-12-25T04:48:28.656Z,2.30
2022-12-25T04:49:30.386Z,2.68
2022-12-25T04:50:32.208Z,2.55
2022-12-25T04:51:34.081Z,2.64
2022-12-25T04:52:38.101Z,2.65
2022-12-25T04:53:39.916Z,2.59
2022-12-25T04:54:41.801Z,1.99
2022-12-25T04:55:43.700Z,2.56
2022-12-25T04:56:46.132Z,2.54
2022-12-25T04:57:48.021Z,2.57
2022-12-25T04:58:49.750Z,2.56
2022-12-25T04:59:51.496Z,2.49
2022-12-25T05:00:53.252Z,2.42
2022-12-25T05:01:55.028Z,2.65
2022-12-25T05:02:58.901Z,2.56
2022-12-25T05:04:00.907Z,2.66
2022-12-25T05:05:02.740Z,2.68
2022-12-25T05:06:05.316Z,1.53
2022-12-25T05:07:07.013Z,2.50
2022-12-25T05:08:08.769Z,2.52
2022-12-25T05:09:10.785Z,2.39
2022-12-25T05:10:12.792Z,1.86
2022-12-25T05:11:15.881Z,1.95
2022-12-25T05:12:17.675Z,2.15
2022-12-25T05:13:19.586Z,0.68
2022-12-25T05:14:21.421Z,2.31
2022-12-25T05:15:23.345Z,2.45
2022-12-25T05:16:25.192Z,2.44
2022-12-25T05:17:26.975Z,2.43
2022-12-25T05:18:28.692Z,2.48
2022-12-25T05:19:30.505Z,1.50
2022-12-25T05:20:38.157Z,2.06
2022-12-25T05:21:41.764Z,2.37
2022-12-25T05:22:43.429Z,2.04
2022-12-25T05:23:45.332Z,1.55
2022-12-25T05:24:47.092Z,2.39
2022-12-25T05:25:49.147Z,2.38
2022-12-25T05:26:50.842Z,1.99
2022-12-25T05:27:54.159Z,1.65
2022-12-25T05:28:56.030Z,2.35
2022-12-25T05:29:57.840Z,1.99
2022-12-25T05:30:59.672Z,1.74
2022-12-25T05:32:02.029Z,2.10
2022-12-25T05:33:04.069Z,1.85
2022-12-25T05:34:05.748Z,1.39
2022-12-25T05:35:07.860Z,1.43
2022-12-25T05:36:11.902Z,2.23
2022-12-25T05:37:14.024Z,1.09
2022-12-25T05:38:15.853Z,1.91
2022-12-25T05:39:17.611Z,2.53
2022-12-25T05:40:19.446Z,2.45
2022-12-25T05:41:21.289Z,2.56
2022-12-25T05:42:23.033Z,2.18
2022-12-25T05:43:25.144Z,1.69
2022-12-25T05:44:27.008Z,2.10
2022-12-25T05:45:28.791Z,1.98
2022-12-25T05:46:30.632Z,2.43
2022-12-25T05:47:32.463Z,2.41
2022-12-25T05:48:36.556Z,1.62
2022-12-25T05:49:38.309Z,2.49
2022-12-25T05:50:40.096Z,1.94
2022-12-25T05:51:41.812Z,2.32
2022-12-25T05:52:43.833Z,2.53
2022-12-25T05:53:45.521Z,2.53
2022-12-25T05:54:47.328Z,2.42
2022-12-25T05:55:49.110Z,2.21
2022-12-25T05:56:50.878Z,2.52
2022-12-25T05:57:52.681Z,2.15
2022-12-25T05:58:54.483Z,2.25
2022-12-25T05:59:56.520Z,2.34
2022-12-25T06:00:58.324Z,2.19
2022-12-25T06:02:00.403Z,2.31
2022-12-25T06:03:02.481Z,2.26
2022-12-25T06:04:08.532Z,2.18
2022-12-25T06:05:14.218Z,1.84
2022-12-25T06:06:16.101Z,1.87
2022-12-25T06:07:17.895Z,2.25
2022-12-25T06:08:19.907Z,2.17
2022-12-25T06:09:21.608Z,2.30
2022-12-25T06:10:23.661Z,1.79
2022-12-25T06:11:25.580Z,2.29
2022-12-25T06:12:27.369Z,2.62
2022-12-25T06:13:29.305Z,2.54
2022-12-25T06:14:31.096Z,2.67
2022-12-25T06:15:33.046Z,2.52
2022-12-25T06:16:38.258Z,2.03
2022-12-25T06:17:40.342Z,2.24
2022-12-25T06:18:46.031Z,2.64
2022-12-25T06:19:47.776Z,2.64
2022-12-25T06:20:49.474Z,2.70
2022-12-25T06:21:55.267Z,2.42
2022-12-25T06:22:56.925Z,2.76
2022-12-25T06:24:00.555Z,2.80
2022-12-25T06:25:02.482Z,2.20
2022-12-25T06:26:10.075Z,1.94
2022-12-25T06:27:11.985Z,2.73
2022-12-25T06:28:13.718Z,2.85
2022-12-25T06:29:15.730Z,2.87
2022-12-25T06:30:17.440Z,2.31
2022-12-25T06:31:21.690Z,2.98
2022-12-25T06:32:23.504Z,0.50
2022-12-25T06:33:25.213Z,2.66
2022-12-25T06:34:27.410Z,2.85
2022-12-25T06:35:29.218Z,2.45
2022-12-25T06:36:30.983Z,2.58
2022-12-25T06:37:32.787Z,2.25
2022-12-25T06:38:34.810Z,3.05
2022-12-25T06:39:36.487Z,3.00
2022-12-25T06:40:38.355Z,3.14
2022-12-25T06:41:40.064Z,3.05
2022-12-25T06:42:41.927Z,1.41
2022-12-25T06:43:43.899Z,1.86
2022-12-25T06:44:45.675Z,3.22
2022-12-25T06:45:47.414Z,3.00
2022-12-25T06:46:49.452Z,2.57
2022-12-25T06:47:51.218Z,3.12
2022-12-25T06:48:53.101Z,2.88
2022-12-25T06:49:54.977Z,2.68
2022-12-25T06:50:56.751Z,3.34
2022-12-25T06:51:58.584Z,3.43
2022-12-25T06:53:00.289Z,2.66
2022-12-25T06:54:02.371Z,3.43
2022-12-25T06:55:04.361Z,3.57
2022-12-25T06:56:15.351Z,3.52
2022-12-25T06:57:17.082Z,3.14
2022-12-25T06:58:18.989Z,3.59
2022-12-25T06:59:20.859Z,3.20
2022-12-25T07:00:22.609Z,3.78
2022-12-25T07:01:31.125Z,3.13
2022-12-25T07:02:34.626Z,3.88
2022-12-25T07:03:36.655Z,3.81
2022-12-25T07:04:46.142Z,2.66
2022-12-25T07:05:48.132Z,3.75
2022-12-25T07:06:50.014Z,2.35
2022-12-25T07:07:55.280Z,2.84
2022-12-25T07:08:58.766Z,2.99
2022-12-25T07:10:00.593Z,3.66
2022-12-25T07:11:03.949Z,4.06
2022-12-25T07:12:22.037Z,4.21
2022-12-25T07:13:26.297Z,2.88
2022-12-25T07:14:28.221Z,3.35
2022-12-25T07:15:30.007Z,3.86
2022-12-25T07:16:31.884Z,3.47
2022-12-25T07:17:34.694Z,4.41
2022-12-25T07:18:36.359Z,3.56
2022-12-25T07:19:44.485Z,4.61
2022-12-25T07:20:46.880Z,4.31
2022-12-25T07:21:48.906Z,4.43
2022-12-25T07:22:52.241Z,4.73
2022-12-25T07:23:54.008Z,3.89
2022-12-25T07:24:55.888Z,4.17
2022-12-25T07:25:59.806Z,4.85
2022-12-25T07:27:01.556Z,4.43
2022-12-25T07:28:03.402Z,4.09
2022-12-25T07:29:05.243Z,3.67
2022-12-25T07:30:07.974Z,3.64
2022-12-25T07:31:17.869Z,5.16
2022-12-25T07:32:19.663Z,4.17
2022-12-25T07:33:21.665Z,4.09
2022-12-25T07:34:23.491Z,4.25
2022-12-25T07:35:25.202Z,5.36
2022-12-25T07:36:28.186Z,4.54
2022-12-25T07:37:31.691Z,5.02
2022-12-25T07:38:35.046Z,5.48
2022-12-25T07:39:36.827Z,5.04
2022-12-25T07:40:39.750Z,3.83
2022-12-25T07:41:43.615Z,2.59
2022-12-25T07:42:46.973Z,5.76
2022-12-25T07:43:52.823Z,5.39
2022-12-25T07:44:56.226Z,5.79
2022-12-25T07:46:04.303Z,2.88
2022-12-25T07:47:06.189Z,5.10
2022-12-25T07:48:13.353Z,6.04
2022-12-25T07:49:19.577Z,6.04
2022-12-25T07:50:23.631Z,3.19
2022-12-25T07:51:26.413Z,6.06
2022-12-25T07:52:28.183Z,4.68
2022-12-25T07:53:31.507Z,5.43
2022-12-25T07:54:35.228Z,4.13
2022-12-25T07:55:37.309Z,4.73
2022-12-25T07:56:40.603Z,5.47
2022-12-25T07:57:43.891Z,4.84
2022-12-25T07:58:47.503Z,4.61
2022-12-25T07:59:58.809Z,6.28
2022-12-25T08:01:12.856Z,6.33
2022-12-25T08:02:17.086Z,6.93
2022-12-25T08:03:24.972Z,3.88
2022-12-25T08:04:28.824Z,6.45
2022-12-25T08:05:33.735Z,4.08
2022-12-25T08:06:37.355Z,6.30
2022-12-25T08:07:41.210Z,5.44
2022-12-25T08:08:45.153Z,4.42
2022-12-25T08:09:48.907Z,4.87
2022-12-25T08:10:51.998Z,4.24
2022-12-25T08:11:55.738Z,6.44
2022-12-25T08:12:59.037Z,6.37
2022-12-25T08:14:02.579Z,6.37
2022-12-25T08:15:05.893Z,7.33
2022-12-25T08:16:11.547Z,6.57
2022-12-25T08:17:15.200Z,6.59
2022-12-25T08:18:21.259Z,6.17
2022-12-25T08:19:27.459Z,6.53
2022-12-25T08:20:30.780Z,5.21
2022-12-25T08:21:34.629Z,4.79
2022-12-25T08:22:38.106Z,6.08
2022-12-25T08:23:45.876Z,7.46
2022-12-25T08:24:49.148Z,5.81
2022-12-25T08:25:52.626Z,7.09
2022-12-25T08:26:55.718Z,8.33
2022-12-25T08:28:00.394Z,7.26
2022-12-25T08:29:03.959Z,7.89
2022-12-25T08:30:07.761Z,8.06
2022-12-25T08:31:21.666Z,7.28
2022-12-25T08:32:24.956Z,7.62
2022-12-25T08:33:27.780Z,8.08
2022-12-25T08:34:31.727Z,8.70
2022-12-25T08:35:36.039Z,7.00
2022-12-25T08:36:39.004Z,7.70
2022-12-25T08:37:42.286Z,7.92
2022-12-25T08:38:45.821Z,8.27
2022-12-25T08:39:50.826Z,6.52
2022-12-25T08:40:54.331Z,8.42
2022-12-25T08:41:57.489Z,5.99
2022-12-25T08:43:01.167Z,8.43
2022-12-25T08:44:05.803Z,8.37
2022-12-25T08:45:09.539Z,7.41
2022-12-25T08:46:13.345Z,7.11
2022-12-25T08:47:17.174Z,8.88
2022-12-25T08:48:21.500Z,5.78
2022-12-25T08:49:24.774Z,9.06
2022-12-25T08:50:27.700Z,6.17
2022-12-25T08:51:31.260Z,6.19
2022-12-25T08:52:34.615Z,9.16
2022-12-25T08:53:38.004Z,8.84
2022-12-25T08:54:41.389Z,8.56
2022-12-25T08:55:44.735Z,9.47
2022-12-25T08:56:51.209Z,6.96
2022-12-25T08:57:54.686Z,9.57
2022-12-25T08:58:57.813Z,8.45
2022-12-25T09:00:01.248Z,9.59
2022-12-25T09:01:04.670Z,9.60
2022-12-25T09:02:08.357Z,8.05
2022-12-25T09:03:12.362Z,9.63
2022-12-25T09:04:15.670Z,8.68
2022-12-25T09:05:19.133Z,8.38
2022-12-25T09:06:22.725Z,8.92
2022-12-25T09:07:24.628Z,9.83
2022-12-25T09:08:27.984Z,7.90
2022-12-25T09:09:31.437Z,9.99
2022-12-25T09:10:37.747Z,10.27
2022-12-25T09:11:41.007Z,10.01
2022-12-25T09:12:42.966Z,8.02
2022-12-25T09:13:46.615Z,10.46
2022-12-25T09:14:50.035Z,10.40
2022-12-25T09:15:53.417Z,8.74
2022-12-25T09:16:56.873Z,10.22
2022-12-25T09:18:00.384Z,10.60
2022-12-25T09:19:04.253Z,9.06
2022-12-25T09:20:08.164Z,9.08
2022-12-25T09:21:13.679Z,10.21
2022-12-25T09:22:16.820Z,10.75
2022-12-25T09:23:20.454Z,10.80
2022-12-25T09:24:24.083Z,10.74
2022-12-25T09:25:27.546Z,10.74
2022-12-25T09:26:31.018Z,9.48
2022-12-25T09:27:34.223Z,10.83
2022-12-25T09:28:37.767Z,10.47
2022-12-25T09:29:41.307Z,9.52
2022-12-25T09:30:44.781Z,9.82
2022-12-25T09:31:47.924Z,10.08
2022-12-25T09:32:51.438Z,9.97
2022-12-25T09:33:57.636Z,9.90
2022-12-25T09:35:00.361Z,11.20
2022-12-25T09:36:05.447Z,10.90
2022-12-25T09:37:07.305Z,10.34
2022-12-25T09:38:10.883Z,11.36
2022-12-25T09:39:12.723Z,10.72
2022-12-25T09:40:20.833Z,10.37
2022-12-25T09:41:53.547Z,11.33
2022-12-25T09:42:57.497Z,10.40
2022-12-25T09:44:14.212Z,9.86
2022-12-25T09:45:26.755Z,8.72
2022-12-25T09:46:40.512Z,11.57
2022-12-25T09:47:47.973Z,11.78
2022-12-25T09:49:06.273Z,11.85
2022-12-25T09:50:22.555Z,11.02
2022-12-25T09:51:27.061Z,9.69
2022-12-25T09:52:44.308Z,9.78
2022-12-25T09:54:01.989Z,8.95
2022-12-25T09:55:19.629Z,11.73
2022-12-25T09:56:26.669Z,10.54
2022-12-25T09:57:30.080Z,10.15
2022-12-25T09:58:34.929Z,10.41
2022-12-25T09:59:38.776Z,12.42
2022-12-25T10:00:52.850Z,12.42
2022-12-25T10:02:21.927Z,11.53
2022-12-25T10:04:22.552Z,12.43
2022-12-25T10:06:09.023Z,12.42
2022-12-25T10:07:36.108Z,12.43
2022-12-25T10:08:47.522Z,12.25
2022-12-25T10:10:11.614Z,11.80
2022-12-25T10:11:50.867Z,12.33
2022-12-25T10:13:12.209Z,12.40
2022-12-25T10:14:31.775Z,10.80
2022-12-25T10:15:45.843Z,12.37
2022-12-25T10:17:32.930Z,12.38
2022-12-25T10:18:49.785Z,12.02
2022-12-25T10:20:17.670Z,11.26
2022-12-25T10:21:21.125Z,12.05
2022-12-25T10:22:34.670Z,10.39
2022-12-25T10:23:44.639Z,11.36
2022-12-25T10:24:52.773Z,10.35
2022-12-25T10:25:56.368Z,12.01
2022-12-25T10:27:01.764Z,10.55
2022-12-25T10:28:12.928Z,11.41
2022-12-25T10:29:20.909Z,10.92
2022-12-25T10:30:26.901Z,11.18
2022-12-25T10:31:32.771Z,10.05
2022-12-25T10:32:36.427Z,11.74
2022-12-25T10:33:42.820Z,11.61
2022-12-25T10:34:49.070Z,11.27
2022-12-25T10:35:52.712Z,11.54
2022-12-25T10:36:59.113Z,9.70
2022-12-25T10:38:15.527Z,10.01
2022-12-25T10:39:25.482Z,11.20
2022-12-25T10:40:49.455Z,12.99
2022-12-25T10:43:58.211Z,12.00
2022-12-25T10:45:09.498Z,10.84
2022-12-25T10:46:15.495Z,12.31
2022-12-25T10:47:42.154Z,13.32
2022-12-25T10:48:50.374Z,13.13
2022-12-25T10:49:54.490Z,13.18
2022-12-25T10:51:00.853Z,10.79
2022-12-25T10:52:04.988Z,12.06
2022-12-25T10:53:40.048Z,10.98
2022-12-25T10:54:49.477Z,13.13
2022-12-25T10:56:05.220Z,11.08
2022-12-25T10:57:14.057Z,13.23
2022-12-25T10:58:24.855Z,12.02
2022-12-25T10:59:35.780Z,11.81
2022-12-25T11:00:41.152Z,10.34
2022-12-25T11:01:45.004Z,11.84
2022-12-25T11:02:51.786Z,10.07
2022-12-25T11:03:55.270Z,10.18
2022-12-25T11:05:29.210Z,13.04
2022-12-25T11:06:36.402Z,10.64
2022-12-25T11:07:46.458Z,11.41
2022-12-25T11:09:02.523Z,12.59
2022-12-25T11:10:23.641Z,10.76
2022-12-25T11:11:28.380Z,10.00
2022-12-25T11:12:44.743Z,10.09
2022-12-25T11:14:03.548Z,10.28
2022-12-25T11:15:38.755Z,12.37
2022-12-25T11:16:42.943Z,13.27
2022-12-25T11:17:55.773Z,11.06
2022-12-25T11:19:00.398Z,13.12
2022-12-25T11:20:04.379Z,10.70
2022-12-25T11:21:39.400Z,10.75
2022-12-25T11:22:47.751Z,11.80
2022-12-25T11:24:01.789Z,12.23
2022-12-25T11:25:24.041Z,12.66
2022-12-25T11:26:28.220Z,12.20
2022-12-25T11:27:41.685Z,10.55
2022-12-25T11:28:46.549Z,11.89
2022-12-25T11:29:53.011Z,12.26
2022-12-25T11:31:15.032Z,13.18
2022-12-25T11:33:04.683Z,11.92
2022-12-25T11:34:54.562Z,12.47
2022-12-25T11:36:06.589Z,12.42
2022-12-25T11:37:25.723Z,10.27
2022-12-25T11:38:38.575Z,11.00
2022-12-25T11:40:54.631Z,10.91
2022-12-25T11:41:35.498Z,10.17
2022-12-25T11:43:16.204Z,10.29
2022-12-25T11:45:15.811Z,13.13
2022-12-25T11:50:36.202Z,13.67
2022-12-25T11:52:09.528Z,12.44
2022-12-25T11:53:31.564Z,12.33
2022-12-25T11:55:01.020Z,13.34
2022-12-25T11:56:27.026Z,13.48
2022-12-25T11:57:37.045Z,12.15
2022-12-25T11:58:57.464Z,11.97
2022-12-25T12:00:05.488Z,10.63
2022-12-25T12:01:32.452Z,12.45
2022-12-25T12:02:46.290Z,11.71
2022-12-25T12:04:09.262Z,12.57
2022-12-25T12:05:51.833Z,12.00
2022-12-25T12:07:27.445Z,13.86
2022-12-25T12:08:48.824Z,12.08
2022-12-25T12:10:27.236Z,14.06
2022-12-25T12:11:40.902Z,13.31
2022-12-25T12:13:20.808Z,14.42
2022-12-25T12:15:00.894Z,14.45
2022-12-25T12:16:03.191Z,11.79
2022-12-25T12:17:08.034Z,14.48
2022-12-25T12:18:23.626Z,13.09
2022-12-25T12:19:27.083Z,14.36
2022-12-25T12:20:32.215Z,12.39
2022-12-25T12:21:34.656Z,10.78
2022-12-25T12:22:37.764Z,13.06
2022-12-25T12:24:17.822Z,13.98
2022-12-25T12:25:22.723Z,11.20
2022-12-25T12:26:37.379Z,10.81
2022-12-25T12:27:45.121Z,13.50
2022-12-25T12:28:50.450Z,13.55
2022-12-25T12:29:55.894Z,10.32
2022-12-25T12:31:06.302Z,13.45
2022-12-25T12:32:24.029Z,12.11
2022-12-25T12:33:33.424Z,10.98
2022-12-25T12:45:36.681Z,11.41
2022-12-25T12:46:50.685Z,9.38
2022-12-25T12:47:55.549Z,10.03
2022-12-25T12:49:34.467Z,10.41
2022-12-25T12:50:40.395Z,11.12
2022-12-25T12:51:44.621Z,10.48
2022-12-25T12:52:49.831Z,10.30
2022-12-25T12:53:51.646Z,11.28
2022-12-25T12:55:08.713Z,11.28
2022-12-25T12:56:18.165Z,9.76
2022-12-25T12:57:30.479Z,11.42
2022-12-25T12:58:35.807Z,11.32
2022-12-25T12:59:44.523Z,10.43
2022-12-25T13:01:14.637Z,10.42
2022-12-25T13:02:33.455Z,12.15
2022-12-25T13:04:05.385Z,11.94
2022-12-25T13:07:20.796Z,11.79
2022-12-25T13:08:48.386Z,9.80
2022-12-25T13:10:23.892Z,11.68
2022-12-25T13:11:37.906Z,8.38
2022-12-25T13:12:42.770Z,8.55
2022-12-25T13:13:51.004Z,9.20
2022-12-25T13:14:54.744Z,10.48
2022-12-25T13:15:57.847Z,10.38
2022-12-25T13:17:02.808Z,11.45
2022-12-25T13:18:11.066Z,8.97
2022-12-25T13:19:20.970Z,11.02
2022-12-25T13:20:39.966Z,8.33
2022-12-25T13:21:52.980Z,8.77
2022-12-25T13:22:56.825Z,11.17
2022-12-25T13:24:12.667Z,10.94
2022-12-25T13:25:22.944Z,8.42
2022-12-25T13:26:26.191Z,10.12
2022-12-25T13:27:31.527Z,9.39
2022-12-25T13:28:37.972Z,8.57
2022-12-25T13:29:41.696Z,8.53
2022-12-25T13:30:51.118Z,8.23
2022-12-25T13:31:55.533Z,10.26
2022-12-25T13:33:06.143Z,10.13
2022-12-25T13:36:56.176Z,11.22
2022-12-25T13:38:30.169Z,11.15
2022-12-25T13:39:48.742Z,8.64
2022-12-25T13:43:16.326Z,9.04
2022-12-25T13:44:40.662Z,11.00
2022-12-25T13:46:00.389Z,9.90
2022-12-25T13:47:37.956Z,8.85
2022-12-25T13:49:36.303Z,8.21
2022-12-25T13:50:41.114Z,9.54
2022-12-25T13:51:45.479Z,9.80
2022-12-25T13:52:52.008Z,9.01
2022-12-25T13:54:12.165Z,7.66
2022-12-25T13:55:26.565Z,7.59
2022-12-25T13:56:31.309Z,9.41
2022-12-25T13:58:07.516Z,7.68
2022-12-25T13:59:21.474Z,8.23
2022-12-25T14:00:30.206Z,7.55
2022-12-25T14:01:34.453Z,9.38
2022-12-25T14:02:38.839Z,7.64
2022-12-25T14:03:44.953Z,9.55
2022-12-25T14:04:48.283Z,9.38
2022-12-25T14:06:03.341Z,9.45
2022-12-25T14:07:13.022Z,8.88
2022-12-25T14:08:25.209Z,8.99
2022-12-25T14:09:28.561Z,9.72
2022-12-25T14:10:39.864Z,8.73
2022-12-25T14:11:46.363Z,9.16
2022-12-25T14:12:51.523Z,10.51
2022-12-25T14:13:59.064Z,10.46
2022-12-25T14:15:04.086Z,9.90
2022-12-25T14:16:07.228Z,8.60
2022-12-25T14:17:12.954Z,9.30
2022-12-25T14:18:21.433Z,7.42
2022-12-25T14:19:30.178Z,8.97
2022-12-25T14:20:38.307Z,10.32
2022-12-25T14:21:44.675Z,9.74
2022-12-25T14:22:52.827Z,7.55
2022-12-25T14:23:56.223Z,9.03
2022-12-25T14:26:23.596Z,8.89
2022-12-25T14:27:30.917Z,9.02
2022-12-25T14:28:34.178Z,9.85
2022-12-25T14:29:45.588Z,9.28
2022-12-25T14:30:48.993Z,9.67
2022-12-25T14:31:53.523Z,8.66
2022-12-25T14:32:57.812Z,9.81
2022-12-25T14:34:03.847Z,9.79
2022-12-25T14:35:07.211Z,9.75
2022-12-25T14:36:14.000Z,9.65
2022-12-25T14:37:23.541Z,7.20
2022-12-25T14:38:31.666Z,9.21
2022-12-25T14:39:38.735Z,9.64
2022-12-25T14:40:42.215Z,8.11
2022-12-25T14:41:53.995Z,6.92
2022-12-25T14:43:02.394Z,6.56
2022-12-25T14:44:26.247Z,7.21
2022-12-25T14:45:37.229Z,8.31
2022-12-25T14:46:40.806Z,9.35
2022-12-25T14:47:58.424Z,8.10
2022-12-25T14:49:05.617Z,9.26
2022-12-25T14:50:35.922Z,7.83
2022-12-25T14:51:40.396Z,8.87
2022-12-25T14:52:53.617Z,7.83
2022-12-25T14:53:58.885Z,6.26
2022-12-25T14:55:27.231Z,5.43
2022-12-25T14:56:32.946Z,6.67
2022-12-25T14:57:40.571Z,7.56
2022-12-25T14:58:53.313Z,5.51
2022-12-25T15:00:01.865Z,8.71
2022-12-25T15:01:06.460Z,7.20
2022-12-25T15:02:19.152Z,7.44
2022-12-25T15:03:28.370Z,8.35
2022-12-25T15:04:31.676Z,7.86
2022-12-25T15:05:38.171Z,8.32
2022-12-25T15:06:55.823Z,5.73
2022-12-25T15:08:32.902Z,6.34
2022-12-25T15:09:40.743Z,5.22
2022-12-25T15:11:02.656Z,6.95
2022-12-25T15:12:07.428Z,7.10
2022-12-25T15:13:10.853Z,8.25
2022-12-25T15:14:18.297Z,5.19
2022-12-25T15:15:30.745Z,6.41
2022-12-25T15:16:46.369Z,5.00